sensor_id;sensor_type;location;lat;lon;timestamp;temperature;humidity
21092;DHT22;10704;42.678;23.288;2024-01-06T00:02:02;6.30;99.90
21092;DHT22;10704;42.678;23.288;2024-01-06T00:04:28;6.20;99.90
21092;DHT22;10704;42.678;23.288;2024-01-06T00:06:54;6.00;99.90
21092;DHT22;10704;42.678;23.288;2024-01-06T00:09:20;5.90;99.90
21092;DHT22;10704;42.678;23.288;2024-01-06T00:11:46;5.90;99.90
21092;DHT22;10704;42.678;23.288;2024-01-06T00:14:12;5.90;99.90
21092;DHT22;10704;42.678;23.288;2024-01-06T00:16:38;6.00;99.90
21092;DHT22;10704;42.678;23.288;2024-01-06T00:19:04;6.10;99.90
21092;DHT22;10704;42.678;23.288;2024-01-06T00:21:30;6.20;99.90
21092;DHT22;10704;42.678;23.288;2024-01-06T00:23:56;6.20;99.90
21092;DHT22;10704;42.678;23.288;2024-01-06T00:26:22;6.10;99.90
21092;DHT22;10704;42.678;23.288;2024-01-06T00:28:49;6.00;99.90
21092;DHT22;10704;42.678;23.288;2024-01-06T00:31:15;6.10;99.90
21092;DHT22;10704;42.678;23.288;2024-01-06T00:33:43;6.10;99.90
21092;DHT22;10704;42.678;23.288;2024-01-06T00:36:09;6.00;99.90
21092;DHT22;10704;42.678;23.288;2024-01-06T00:38:35;6.00;99.90
21092;DHT22;10704;42.678;23.288;2024-01-06T00:41:01;6.00;99.90
21092;DHT22;10704;42.678;23.288;2024-01-06T00:43:27;6.00;99.90
21092;DHT22;10704;42.678;23.288;2024-01-06T00:45:53;5.90;99.90
21092;DHT22;10704;42.678;23.288;2024-01-06T00:48:20;5.90;99.90
21092;DHT22;10704;42.678;23.288;2024-01-06T00:50:46;6.00;99.90
21092;DHT22;10704;42.678;23.288;2024-01-06T00:53:14;6.10;99.90
21092;DHT22;10704;42.678;23.288;2024-01-06T00:55:40;6.30;99.90
21092;DHT22;10704;42.678;23.288;2024-01-06T00:58:05;6.40;99.90
21092;DHT22;10704;42.678;23.288;2024-01-06T01:00:31;6.10;99.90
21092;DHT22;10704;42.678;23.288;2024-01-06T01:02:57;6.10;99.90
21092;DHT22;10704;42.678;23.288;2024-01-06T01:05:23;6.00;99.90
21092;DHT22;10704;42.678;23.288;2024-01-06T01:07:49;6.00;99.90
21092;DHT22;10704;42.678;23.288;2024-01-06T01:10:15;5.80;99.90
21092;DHT22;10704;42.678;23.288;2024-01-06T01:12:41;5.80;99.90
21092;DHT22;10704;42.678;23.288;2024-01-06T01:15:07;5.70;99.90
21092;DHT22;10704;42.678;23.288;2024-01-06T01:17:33;5.70;99.90
21092;DHT22;10704;42.678;23.288;2024-01-06T01:19:59;5.60;99.90
21092;DHT22;10704;42.678;23.288;2024-01-06T01:22:25;5.80;99.90
21092;DHT22;10704;42.678;23.288;2024-01-06T01:24:51;5.70;99.90
21092;DHT22;10704;42.678;23.288;2024-01-06T01:27:17;5.80;99.90
21092;DHT22;10704;42.678;23.288;2024-01-06T01:29:43;5.70;99.90
21092;DHT22;10704;42.678;23.288;2024-01-06T01:32:09;5.70;99.90
21092;DHT22;10704;42.678;23.288;2024-01-06T01:34:38;5.70;99.90
21092;DHT22;10704;42.678;23.288;2024-01-06T01:37:04;5.80;99.90
21092;DHT22;10704;42.678;23.288;2024-01-06T01:39:30;5.80;99.90
21092;DHT22;10704;42.678;23.288;2024-01-06T01:41:56;5.90;99.90
21092;DHT22;10704;42.678;23.288;2024-01-06T01:44:22;5.90;99.90
21092;DHT22;10704;42.678;23.288;2024-01-06T01:46:48;5.80;99.90
21092;DHT22;10704;42.678;23.288;2024-01-06T01:49:15;5.80;99.90
21092;DHT22;10704;42.678;23.288;2024-01-06T01:51:41;6.00;99.90
21092;DHT22;10704;42.678;23.288;2024-01-06T01:54:10;6.00;99.90
21092;DHT22;10704;42.678;23.288;2024-01-06T01:56:36;6.00;99.90
21092;DHT22;10704;42.678;23.288;2024-01-06T01:59:06;5.90;99.90
21092;DHT22;10704;42.678;23.288;2024-01-06T02:01:34;5.80;99.90
21092;DHT22;10704;42.678;23.288;2024-01-06T02:04:00;5.90;99.90
21092;DHT22;10704;42.678;23.288;2024-01-06T02:06:25;5.80;99.90
21092;DHT22;10704;42.678;23.288;2024-01-06T02:08:51;5.80;99.90
21092;DHT22;10704;42.678;23.288;2024-01-06T02:11:17;5.60;99.90
21092;DHT22;10704;42.678;23.288;2024-01-06T02:13:43;5.40;99.90
21092;DHT22;10704;42.678;23.288;2024-01-06T02:16:09;5.60;99.90
21092;DHT22;10704;42.678;23.288;2024-01-06T02:18:35;5.70;99.90
21092;DHT22;10704;42.678;23.288;2024-01-06T02:21:02;5.70;99.90
21092;DHT22;10704;42.678;23.288;2024-01-06T02:23:29;5.60;99.90
21092;DHT22;10704;42.678;23.288;2024-01-06T02:25:56;5.60;99.90
21092;DHT22;10704;42.678;23.288;2024-01-06T02:28:22;5.60;99.90
21092;DHT22;10704;42.678;23.288;2024-01-06T02:30:49;5.60;99.90
21092;DHT22;10704;42.678;23.288;2024-01-06T02:33:15;5.80;99.90
21092;DHT22;10704;42.678;23.288;2024-01-06T02:35:41;5.80;99.90
21092;DHT22;10704;42.678;23.288;2024-01-06T02:38:07;5.70;99.90
21092;DHT22;10704;42.678;23.288;2024-01-06T02:40:34;5.70;99.90
21092;DHT22;10704;42.678;23.288;2024-01-06T02:43:00;5.70;99.90
21092;DHT22;10704;42.678;23.288;2024-01-06T02:45:26;5.70;99.90
21092;DHT22;10704;42.678;23.288;2024-01-06T02:47:52;5.70;99.90
21092;DHT22;10704;42.678;23.288;2024-01-06T02:50:18;5.70;99.90
21092;DHT22;10704;42.678;23.288;2024-01-06T02:52:44;5.60;99.90
21092;DHT22;10704;42.678;23.288;2024-01-06T02:55:13;5.70;99.90
21092;DHT22;10704;42.678;23.288;2024-01-06T02:57:39;5.80;99.90
21092;DHT22;10704;42.678;23.288;2024-01-06T03:00:08;5.80;99.90
21092;DHT22;10704;42.678;23.288;2024-01-06T03:02:34;5.80;99.90
21092;DHT22;10704;42.678;23.288;2024-01-06T03:05:02;5.80;99.90
21092;DHT22;10704;42.678;23.288;2024-01-06T03:07:28;5.90;99.90
21092;DHT22;10704;42.678;23.288;2024-01-06T03:09:54;6.10;99.90
21092;DHT22;10704;42.678;23.288;2024-01-06T03:12:20;6.10;99.90
21092;DHT22;10704;42.678;23.288;2024-01-06T03:14:46;6.10;99.90
21092;DHT22;10704;42.678;23.288;2024-01-06T03:17:12;5.90;99.90
21092;DHT22;10704;42.678;23.288;2024-01-06T03:19:38;6.00;99.90
21092;DHT22;10704;42.678;23.288;2024-01-06T03:22:05;5.90;99.90
21092;DHT22;10704;42.678;23.288;2024-01-06T03:24:31;5.90;99.90
21092;DHT22;10704;42.678;23.288;2024-01-06T03:26:57;5.80;99.90
21092;DHT22;10704;42.678;23.288;2024-01-06T03:29:23;5.90;99.90
21092;DHT22;10704;42.678;23.288;2024-01-06T03:31:48;5.90;99.90
21092;DHT22;10704;42.678;23.288;2024-01-06T03:34:14;5.90;99.90
21092;DHT22;10704;42.678;23.288;2024-01-06T03:36:41;5.70;99.90
21092;DHT22;10704;42.678;23.288;2024-01-06T03:39:07;5.70;99.90
21092;DHT22;10704;42.678;23.288;2024-01-06T03:41:33;5.60;99.90
21092;DHT22;10704;42.678;23.288;2024-01-06T03:43:59;5.50;99.90
21092;DHT22;10704;42.678;23.288;2024-01-06T03:46:25;5.50;99.90
21092;DHT22;10704;42.678;23.288;2024-01-06T03:48:51;5.50;99.90
21092;DHT22;10704;42.678;23.288;2024-01-06T03:51:17;5.60;99.90
21092;DHT22;10704;42.678;23.288;2024-01-06T03:53:43;5.70;99.90
21092;DHT22;10704;42.678;23.288;2024-01-06T03:56:09;5.80;99.90
21092;DHT22;10704;42.678;23.288;2024-01-06T03:58:35;5.70;99.90
21092;DHT22;10704;42.678;23.288;2024-01-06T04:01:01;5.60;99.90
21092;DHT22;10704;42.678;23.288;2024-01-06T04:03:27;5.50;99.90
21092;DHT22;10704;42.678;23.288;2024-01-06T04:05:53;5.60;99.90
21092;DHT22;10704;42.678;23.288;2024-01-06T04:08:19;5.50;99.90
21092;DHT22;10704;42.678;23.288;2024-01-06T04:10:45;5.50;99.90
21092;DHT22;10704;42.678;23.288;2024-01-06T04:13:11;5.60;99.90
21092;DHT22;10704;42.678;23.288;2024-01-06T04:15:38;5.80;99.90
21092;DHT22;10704;42.678;23.288;2024-01-06T04:18:04;5.70;99.90
21092;DHT22;10704;42.678;23.288;2024-01-06T04:20:31;5.70;99.90
21092;DHT22;10704;42.678;23.288;2024-01-06T04:22:58;5.70;99.90
21092;DHT22;10704;42.678;23.288;2024-01-06T04:25:24;5.60;99.90
21092;DHT22;10704;42.678;23.288;2024-01-06T04:27:50;5.60;99.90
21092;DHT22;10704;42.678;23.288;2024-01-06T04:30:17;5.60;99.90
21092;DHT22;10704;42.678;23.288;2024-01-06T04:32:43;5.70;99.90
21092;DHT22;10704;42.678;23.288;2024-01-06T04:35:10;5.80;99.90
21092;DHT22;10704;42.678;23.288;2024-01-06T04:37:36;5.80;99.90
21092;DHT22;10704;42.678;23.288;2024-01-06T04:40:03;5.70;99.90
21092;DHT22;10704;42.678;23.288;2024-01-06T04:42:30;5.60;99.90
21092;DHT22;10704;42.678;23.288;2024-01-06T04:44:55;5.60;99.90
21092;DHT22;10704;42.678;23.288;2024-01-06T04:47:22;5.50;99.90
21092;DHT22;10704;42.678;23.288;2024-01-06T04:49:48;5.40;99.90
21092;DHT22;10704;42.678;23.288;2024-01-06T04:52:14;5.40;99.90
21092;DHT22;10704;42.678;23.288;2024-01-06T04:54:39;5.50;99.90
21092;DHT22;10704;42.678;23.288;2024-01-06T04:57:05;5.50;99.90
21092;DHT22;10704;42.678;23.288;2024-01-06T04:59:31;5.50;99.90
21092;DHT22;10704;42.678;23.288;2024-01-06T05:01:58;5.40;99.90
21092;DHT22;10704;42.678;23.288;2024-01-06T05:04:24;5.40;99.90
21092;DHT22;10704;42.678;23.288;2024-01-06T05:06:53;5.40;99.90
21092;DHT22;10704;42.678;23.288;2024-01-06T05:09:20;5.30;99.90
21092;DHT22;10704;42.678;23.288;2024-01-06T05:11:46;5.30;99.90
21092;DHT22;10704;42.678;23.288;2024-01-06T05:14:12;5.40;99.90
21092;DHT22;10704;42.678;23.288;2024-01-06T05:16:38;5.50;99.90
21092;DHT22;10704;42.678;23.288;2024-01-06T05:19:04;5.50;99.90
21092;DHT22;10704;42.678;23.288;2024-01-06T05:21:30;5.40;99.90
21092;DHT22;10704;42.678;23.288;2024-01-06T05:23:56;5.40;99.90
21092;DHT22;10704;42.678;23.288;2024-01-06T05:26:22;5.30;99.90
21092;DHT22;10704;42.678;23.288;2024-01-06T05:28:48;5.40;99.90
21092;DHT22;10704;42.678;23.288;2024-01-06T05:31:14;5.30;99.90
21092;DHT22;10704;42.678;23.288;2024-01-06T05:33:40;5.30;99.90
21092;DHT22;10704;42.678;23.288;2024-01-06T05:36:06;5.20;99.90
21092;DHT22;10704;42.678;23.288;2024-01-06T05:38:32;5.30;99.90
21092;DHT22;10704;42.678;23.288;2024-01-06T05:40:58;5.20;99.90
21092;DHT22;10704;42.678;23.288;2024-01-06T05:43:24;5.20;99.90
21092;DHT22;10704;42.678;23.288;2024-01-06T05:45:50;5.20;99.90
21092;DHT22;10704;42.678;23.288;2024-01-06T05:48:16;5.10;99.90
21092;DHT22;10704;42.678;23.288;2024-01-06T05:50:42;5.00;99.90
21092;DHT22;10704;42.678;23.288;2024-01-06T05:53:09;5.00;99.90
21092;DHT22;10704;42.678;23.288;2024-01-06T05:55:36;5.10;99.90
21092;DHT22;10704;42.678;23.288;2024-01-06T05:58:02;5.10;99.90
21092;DHT22;10704;42.678;23.288;2024-01-06T06:00:28;5.10;99.90
21092;DHT22;10704;42.678;23.288;2024-01-06T06:02:57;5.00;99.90
21092;DHT22;10704;42.678;23.288;2024-01-06T06:05:23;5.00;99.90
21092;DHT22;10704;42.678;23.288;2024-01-06T06:07:49;5.00;99.90
21092;DHT22;10704;42.678;23.288;2024-01-06T06:10:15;4.90;99.90
21092;DHT22;10704;42.678;23.288;2024-01-06T06:12:44;4.80;99.90
21092;DHT22;10704;42.678;23.288;2024-01-06T06:15:10;4.90;99.90
21092;DHT22;10704;42.678;23.288;2024-01-06T06:17:36;4.90;99.90
21092;DHT22;10704;42.678;23.288;2024-01-06T06:20:02;5.00;99.90
21092;DHT22;10704;42.678;23.288;2024-01-06T06:22:28;5.10;99.90
21092;DHT22;10704;42.678;23.288;2024-01-06T06:24:58;5.10;99.90
21092;DHT22;10704;42.678;23.288;2024-01-06T06:27:24;5.10;99.90
21092;DHT22;10704;42.678;23.288;2024-01-06T06:29:50;5.00;99.90
21092;DHT22;10704;42.678;23.288;2024-01-06T06:32:16;5.00;99.90
21092;DHT22;10704;42.678;23.288;2024-01-06T06:34:42;4.90;99.90
21092;DHT22;10704;42.678;23.288;2024-01-06T06:37:09;4.90;99.90
21092;DHT22;10704;42.678;23.288;2024-01-06T06:39:35;5.00;99.90
21092;DHT22;10704;42.678;23.288;2024-01-06T06:42:01;5.10;99.90
21092;DHT22;10704;42.678;23.288;2024-01-06T06:44:28;5.00;99.90
21092;DHT22;10704;42.678;23.288;2024-01-06T06:46:56;5.00;99.90
21092;DHT22;10704;42.678;23.288;2024-01-06T06:49:22;5.10;99.90
21092;DHT22;10704;42.678;23.288;2024-01-06T06:51:48;5.10;99.90
21092;DHT22;10704;42.678;23.288;2024-01-06T06:54:15;5.10;99.90
21092;DHT22;10704;42.678;23.288;2024-01-06T06:56:44;5.20;99.90
21092;DHT22;10704;42.678;23.288;2024-01-06T06:59:10;5.20;99.90
21092;DHT22;10704;42.678;23.288;2024-01-06T07:01:37;5.30;99.90
21092;DHT22;10704;42.678;23.288;2024-01-06T07:04:03;5.40;99.90
21092;DHT22;10704;42.678;23.288;2024-01-06T07:06:29;5.50;99.90
21092;DHT22;10704;42.678;23.288;2024-01-06T07:08:56;5.40;99.90
21092;DHT22;10704;42.678;23.288;2024-01-06T07:11:22;5.50;99.90
21092;DHT22;10704;42.678;23.288;2024-01-06T07:13:49;5.50;99.90
21092;DHT22;10704;42.678;23.288;2024-01-06T07:16:15;5.50;99.90
21092;DHT22;10704;42.678;23.288;2024-01-06T07:18:41;5.60;99.90
21092;DHT22;10704;42.678;23.288;2024-01-06T07:21:07;5.60;99.90
21092;DHT22;10704;42.678;23.288;2024-01-06T07:23:33;5.70;99.90
21092;DHT22;10704;42.678;23.288;2024-01-06T07:26:00;5.60;99.90
21092;DHT22;10704;42.678;23.288;2024-01-06T07:28:26;5.70;99.90
21092;DHT22;10704;42.678;23.288;2024-01-06T07:30:53;5.90;99.90
21092;DHT22;10704;42.678;23.288;2024-01-06T07:33:18;6.10;99.90
21092;DHT22;10704;42.678;23.288;2024-01-06T07:35:44;6.10;99.90
21092;DHT22;10704;42.678;23.288;2024-01-06T07:38:12;6.20;99.90
21092;DHT22;10704;42.678;23.288;2024-01-06T07:40:38;6.20;99.90
21092;DHT22;10704;42.678;23.288;2024-01-06T07:43:04;6.40;99.90
21092;DHT22;10704;42.678;23.288;2024-01-06T07:45:30;6.40;99.90
21092;DHT22;10704;42.678;23.288;2024-01-06T07:48:00;6.50;99.90
21092;DHT22;10704;42.678;23.288;2024-01-06T07:50:27;6.50;99.90
21092;DHT22;10704;42.678;23.288;2024-01-06T07:52:53;6.70;99.90
21092;DHT22;10704;42.678;23.288;2024-01-06T07:55:19;6.80;99.90
21092;DHT22;10704;42.678;23.288;2024-01-06T07:57:46;6.70;99.90
21092;DHT22;10704;42.678;23.288;2024-01-06T08:00:12;6.90;99.90
21092;DHT22;10704;42.678;23.288;2024-01-06T08:02:42;7.10;99.90
21092;DHT22;10704;42.678;23.288;2024-01-06T08:05:08;7.30;99.90
21092;DHT22;10704;42.678;23.288;2024-01-06T08:07:35;7.40;99.90
21092;DHT22;10704;42.678;23.288;2024-01-06T08:10:01;7.60;99.90
21092;DHT22;10704;42.678;23.288;2024-01-06T08:12:30;7.70;99.90
21092;DHT22;10704;42.678;23.288;2024-01-06T08:14:56;7.60;99.90
21092;DHT22;10704;42.678;23.288;2024-01-06T08:17:22;7.50;99.90
21092;DHT22;10704;42.678;23.288;2024-01-06T08:19:48;7.50;99.90
21092;DHT22;10704;42.678;23.288;2024-01-06T08:22:15;7.40;99.90
21092;DHT22;10704;42.678;23.288;2024-01-06T08:24:40;7.20;99.90
21092;DHT22;10704;42.678;23.288;2024-01-06T08:27:06;7.40;99.90
21092;DHT22;10704;42.678;23.288;2024-01-06T08:29:33;7.60;99.90
21092;DHT22;10704;42.678;23.288;2024-01-06T08:32:00;7.80;99.90
21092;DHT22;10704;42.678;23.288;2024-01-06T08:34:26;8.10;99.90
21092;DHT22;10704;42.678;23.288;2024-01-06T08:36:52;8.60;99.90
21092;DHT22;10704;42.678;23.288;2024-01-06T08:39:18;9.20;99.90
21092;DHT22;10704;42.678;23.288;2024-01-06T08:41:44;9.30;99.90
21092;DHT22;10704;42.678;23.288;2024-01-06T08:44:10;9.60;99.90
21092;DHT22;10704;42.678;23.288;2024-01-06T08:46:36;10.10;99.90
21092;DHT22;10704;42.678;23.288;2024-01-06T08:49:02;10.70;99.90
21092;DHT22;10704;42.678;23.288;2024-01-06T08:51:28;10.50;99.90
21092;DHT22;10704;42.678;23.288;2024-01-06T08:53:56;9.90;99.90
21092;DHT22;10704;42.678;23.288;2024-01-06T08:56:22;9.50;99.90
21092;DHT22;10704;42.678;23.288;2024-01-06T08:58:48;9.30;99.90
21092;DHT22;10704;42.678;23.288;2024-01-06T09:01:14;10.20;99.90
21092;DHT22;10704;42.678;23.288;2024-01-06T09:03:40;10.40;99.90
21092;DHT22;10704;42.678;23.288;2024-01-06T09:06:06;10.00;99.90
21092;DHT22;10704;42.678;23.288;2024-01-06T09:08:32;10.00;99.90
21092;DHT22;10704;42.678;23.288;2024-01-06T09:10:58;10.10;99.90
21092;DHT22;10704;42.678;23.288;2024-01-06T09:13:25;10.50;99.90
21092;DHT22;10704;42.678;23.288;2024-01-06T09:15:54;11.20;99.90
21092;DHT22;10704;42.678;23.288;2024-01-06T09:18:20;11.80;99.90
21092;DHT22;10704;42.678;23.288;2024-01-06T09:20:46;11.80;99.90
21092;DHT22;10704;42.678;23.288;2024-01-06T09:23:16;11.30;99.90
21092;DHT22;10704;42.678;23.288;2024-01-06T09:25:42;10.60;99.90
21092;DHT22;10704;42.678;23.288;2024-01-06T09:28:08;10.00;99.90
21092;DHT22;10704;42.678;23.288;2024-01-06T09:30:34;9.60;99.90
21092;DHT22;10704;42.678;23.288;2024-01-06T09:33:00;9.40;99.90
21092;DHT22;10704;42.678;23.288;2024-01-06T09:35:26;9.60;99.90
21092;DHT22;10704;42.678;23.288;2024-01-06T09:37:52;9.80;99.90
21092;DHT22;10704;42.678;23.288;2024-01-06T09:40:31;10.10;99.90
21092;DHT22;10704;42.678;23.288;2024-01-06T09:42:57;9.90;99.90
21092;DHT22;10704;42.678;23.288;2024-01-06T09:45:23;9.90;99.90
21092;DHT22;10704;42.678;23.288;2024-01-06T09:47:50;9.60;99.90
21092;DHT22;10704;42.678;23.288;2024-01-06T09:50:21;9.80;99.90
21092;DHT22;10704;42.678;23.288;2024-01-06T09:52:48;9.70;99.90
21092;DHT22;10704;42.678;23.288;2024-01-06T09:55:24;9.90;99.90
21092;DHT22;10704;42.678;23.288;2024-01-06T09:57:54;10.00;99.90
21092;DHT22;10704;42.678;23.288;2024-01-06T10:00:20;10.00;99.90
21092;DHT22;10704;42.678;23.288;2024-01-06T10:02:50;10.00;99.90
21092;DHT22;10704;42.678;23.288;2024-01-06T10:05:21;9.90;99.90
21092;DHT22;10704;42.678;23.288;2024-01-06T10:07:48;9.70;99.90
21092;DHT22;10704;42.678;23.288;2024-01-06T10:10:15;9.80;99.90
21092;DHT22;10704;42.678;23.288;2024-01-06T10:12:42;10.10;99.90
21092;DHT22;10704;42.678;23.288;2024-01-06T10:15:10;10.00;99.90
21092;DHT22;10704;42.678;23.288;2024-01-06T10:17:37;9.70;99.90
21092;DHT22;10704;42.678;23.288;2024-01-06T10:20:13;9.80;99.90
21092;DHT22;10704;42.678;23.288;2024-01-06T10:22:42;9.90;99.90
21092;DHT22;10704;42.678;23.288;2024-01-06T10:25:09;9.90;99.90
21092;DHT22;10704;42.678;23.288;2024-01-06T10:27:38;9.80;99.90
21092;DHT22;10704;42.678;23.288;2024-01-06T10:30:06;10.10;99.90
21092;DHT22;10704;42.678;23.288;2024-01-06T10:32:33;10.30;99.90
21092;DHT22;10704;42.678;23.288;2024-01-06T10:35:00;10.40;99.90
21092;DHT22;10704;42.678;23.288;2024-01-06T10:37:30;10.70;99.90
21092;DHT22;10704;42.678;23.288;2024-01-06T10:40:17;10.80;99.90
21092;DHT22;10704;42.678;23.288;2024-01-06T10:42:45;11.00;99.90
21092;DHT22;10704;42.678;23.288;2024-01-06T10:45:13;11.10;99.90
21092;DHT22;10704;42.678;23.288;2024-01-06T10:47:41;11.10;99.90
21092;DHT22;10704;42.678;23.288;2024-01-06T10:50:11;11.20;99.90
21092;DHT22;10704;42.678;23.288;2024-01-06T10:52:39;11.30;99.90
21092;DHT22;10704;42.678;23.288;2024-01-06T10:55:05;11.30;99.90
21092;DHT22;10704;42.678;23.288;2024-01-06T10:57:32;11.30;99.90
21092;DHT22;10704;42.678;23.288;2024-01-06T10:59:59;11.30;99.90
21092;DHT22;10704;42.678;23.288;2024-01-06T11:02:26;11.50;99.90
21092;DHT22;10704;42.678;23.288;2024-01-06T11:04:52;11.60;99.90
21092;DHT22;10704;42.678;23.288;2024-01-06T11:07:20;12.10;99.90
21092;DHT22;10704;42.678;23.288;2024-01-06T11:10:02;12.20;99.90
21092;DHT22;10704;42.678;23.288;2024-01-06T11:12:31;12.10;99.90
21092;DHT22;10704;42.678;23.288;2024-01-06T11:14:57;12.10;99.90
21092;DHT22;10704;42.678;23.288;2024-01-06T11:17:55;12.20;99.90
21092;DHT22;10704;42.678;23.288;2024-01-06T11:20:24;12.50;99.90
21092;DHT22;10704;42.678;23.288;2024-01-06T11:22:51;12.90;99.90
21092;DHT22;10704;42.678;23.288;2024-01-06T11:25:19;13.10;99.90
21092;DHT22;10704;42.678;23.288;2024-01-06T11:27:47;13.70;99.90
21092;DHT22;10704;42.678;23.288;2024-01-06T11:30:26;13.90;99.90
21092;DHT22;10704;42.678;23.288;2024-01-06T11:32:56;14.70;99.90
21092;DHT22;10704;42.678;23.288;2024-01-06T11:35:26;15.30;99.50
21092;DHT22;10704;42.678;23.288;2024-01-06T11:37:57;16.30;97.40
21092;DHT22;10704;42.678;23.288;2024-01-06T11:40:31;16.00;95.30
21092;DHT22;10704;42.678;23.288;2024-01-06T11:43:09;14.60;96.20
21092;DHT22;10704;42.678;23.288;2024-01-06T11:45:36;14.00;97.20
21092;DHT22;10704;42.678;23.288;2024-01-06T11:48:05;13.70;97.70
21092;DHT22;10704;42.678;23.288;2024-01-06T11:50:34;13.70;98.20
21092;DHT22;10704;42.678;23.288;2024-01-06T11:53:00;13.60;97.80
21092;DHT22;10704;42.678;23.288;2024-01-06T11:55:29;13.40;98.30
21092;DHT22;10704;42.678;23.288;2024-01-06T11:58:01;13.80;97.30
21092;DHT22;10704;42.678;23.288;2024-01-06T12:00:29;14.50;97.30
21092;DHT22;10704;42.678;23.288;2024-01-06T12:03:00;14.60;95.90
21092;DHT22;10704;42.678;23.288;2024-01-06T12:05:27;14.40;96.10
21092;DHT22;10704;42.678;23.288;2024-01-06T12:08:03;14.50;96.10
21092;DHT22;10704;42.678;23.288;2024-01-06T12:10:33;14.30;95.50
21092;DHT22;10704;42.678;23.288;2024-01-06T12:13:03;14.10;95.60
21092;DHT22;10704;42.678;23.288;2024-01-06T12:15:32;13.80;96.10
21092;DHT22;10704;42.678;23.288;2024-01-06T12:17:59;13.20;96.90
21092;DHT22;10704;42.678;23.288;2024-01-06T12:20:26;12.80;97.70
21092;DHT22;10704;42.678;23.288;2024-01-06T12:22:52;12.70;99.00
21092;DHT22;10704;42.678;23.288;2024-01-06T12:25:24;12.60;99.00
21092;DHT22;10704;42.678;23.288;2024-01-06T12:27:51;12.40;99.50
21092;DHT22;10704;42.678;23.288;2024-01-06T12:30:22;12.40;99.90
21092;DHT22;10704;42.678;23.288;2024-01-06T12:32:49;12.00;99.90
21092;DHT22;10704;42.678;23.288;2024-01-06T12:35:17;11.90;99.90
21092;DHT22;10704;42.678;23.288;2024-01-06T12:37:44;11.80;99.90
21092;DHT22;10704;42.678;23.288;2024-01-06T12:40:12;11.50;99.90
21092;DHT22;10704;42.678;23.288;2024-01-06T12:42:38;11.60;99.90
21092;DHT22;10704;42.678;23.288;2024-01-06T12:45:06;11.40;99.90
21092;DHT22;10704;42.678;23.288;2024-01-06T12:47:33;11.40;99.90
21092;DHT22;10704;42.678;23.288;2024-01-06T12:49:59;11.40;99.90
21092;DHT22;10704;42.678;23.288;2024-01-06T12:52:25;11.50;99.90
21092;DHT22;10704;42.678;23.288;2024-01-06T12:54:51;11.20;99.90
21092;DHT22;10704;42.678;23.288;2024-01-06T12:57:18;11.30;99.90
21092;DHT22;10704;42.678;23.288;2024-01-06T12:59:44;11.50;99.90
21092;DHT22;10704;42.678;23.288;2024-01-06T13:02:10;11.70;99.90
21092;DHT22;10704;42.678;23.288;2024-01-06T13:04:36;11.70;99.90
21092;DHT22;10704;42.678;23.288;2024-01-06T13:07:02;11.90;99.90
21092;DHT22;10704;42.678;23.288;2024-01-06T13:09:28;12.80;99.90
21092;DHT22;10704;42.678;23.288;2024-01-06T13:11:55;13.90;99.90
21092;DHT22;10704;42.678;23.288;2024-01-06T13:14:26;14.60;99.90
21092;DHT22;10704;42.678;23.288;2024-01-06T13:16:52;14.70;98.70
21092;DHT22;10704;42.678;23.288;2024-01-06T13:19:18;15.60;97.70
21092;DHT22;10704;42.678;23.288;2024-01-06T13:21:45;16.20;95.50
21092;DHT22;10704;42.678;23.288;2024-01-06T13:24:11;16.60;94.00
21092;DHT22;10704;42.678;23.288;2024-01-06T13:26:38;16.70;92.60
21092;DHT22;10704;42.678;23.288;2024-01-06T13:29:04;16.70;92.20
21092;DHT22;10704;42.678;23.288;2024-01-06T13:31:30;16.90;91.60
21092;DHT22;10704;42.678;23.288;2024-01-06T13:33:56;17.30;91.40
21092;DHT22;10704;42.678;23.288;2024-01-06T13:36:22;17.40;90.60
21092;DHT22;10704;42.678;23.288;2024-01-06T13:38:48;17.60;89.20
21092;DHT22;10704;42.678;23.288;2024-01-06T13:41:15;17.80;87.60
21092;DHT22;10704;42.678;23.288;2024-01-06T13:43:41;17.60;87.00
21092;DHT22;10704;42.678;23.288;2024-01-06T13:46:07;17.60;87.70
21092;DHT22;10704;42.678;23.288;2024-01-06T13:48:33;17.70;87.10
21092;DHT22;10704;42.678;23.288;2024-01-06T13:50:59;18.00;87.20
21092;DHT22;10704;42.678;23.288;2024-01-06T13:53:25;18.10;86.30
21092;DHT22;10704;42.678;23.288;2024-01-06T13:55:51;17.30;87.70
21092;DHT22;10704;42.678;23.288;2024-01-06T13:58:17;16.00;90.70
21092;DHT22;10704;42.678;23.288;2024-01-06T14:00:44;15.20;92.30
21092;DHT22;10704;42.678;23.288;2024-01-06T14:03:10;14.50;93.70
21092;DHT22;10704;42.678;23.288;2024-01-06T14:05:36;13.90;95.10
21092;DHT22;10704;42.678;23.288;2024-01-06T14:08:03;13.40;96.40
21092;DHT22;10704;42.678;23.288;2024-01-06T14:10:29;13.20;97.30
21092;DHT22;10704;42.678;23.288;2024-01-06T14:12:57;12.60;98.90
21092;DHT22;10704;42.678;23.288;2024-01-06T14:15:23;12.50;99.90
21092;DHT22;10704;42.678;23.288;2024-01-06T14:17:49;12.30;99.90
21092;DHT22;10704;42.678;23.288;2024-01-06T14:20:16;12.20;99.90
21092;DHT22;10704;42.678;23.288;2024-01-06T14:22:47;12.10;99.90
21092;DHT22;10704;42.678;23.288;2024-01-06T14:25:15;12.10;99.90
21092;DHT22;10704;42.678;23.288;2024-01-06T14:27:44;12.10;99.90
21092;DHT22;10704;42.678;23.288;2024-01-06T14:30:10;12.00;99.90
21092;DHT22;10704;42.678;23.288;2024-01-06T14:32:36;11.90;99.90
21092;DHT22;10704;42.678;23.288;2024-01-06T14:35:05;11.80;99.90
21092;DHT22;10704;42.678;23.288;2024-01-06T14:37:33;11.80;99.90
21092;DHT22;10704;42.678;23.288;2024-01-06T14:39:59;11.70;99.90
21092;DHT22;10704;42.678;23.288;2024-01-06T14:42:30;11.70;99.90
21092;DHT22;10704;42.678;23.288;2024-01-06T14:44:56;11.70;99.90
21092;DHT22;10704;42.678;23.288;2024-01-06T14:47:23;11.60;99.90
21092;DHT22;10704;42.678;23.288;2024-01-06T14:49:49;11.50;99.90
21092;DHT22;10704;42.678;23.288;2024-01-06T14:52:15;11.20;99.90
21092;DHT22;10704;42.678;23.288;2024-01-06T14:54:40;10.80;99.90
21092;DHT22;10704;42.678;23.288;2024-01-06T14:57:06;10.80;99.90
21092;DHT22;10704;42.678;23.288;2024-01-06T14:59:33;10.80;99.90
21092;DHT22;10704;42.678;23.288;2024-01-06T15:02:03;10.60;99.90
21092;DHT22;10704;42.678;23.288;2024-01-06T15:04:29;10.60;99.90
21092;DHT22;10704;42.678;23.288;2024-01-06T15:06:55;10.30;99.90
21092;DHT22;10704;42.678;23.288;2024-01-06T15:09:21;10.40;99.90
21092;DHT22;10704;42.678;23.288;2024-01-06T15:11:49;10.20;99.90
21092;DHT22;10704;42.678;23.288;2024-01-06T15:14:15;10.00;99.90
21092;DHT22;10704;42.678;23.288;2024-01-06T15:16:41;10.00;99.90
21092;DHT22;10704;42.678;23.288;2024-01-06T15:19:08;10.00;99.90
21092;DHT22;10704;42.678;23.288;2024-01-06T15:21:34;10.00;99.90
21092;DHT22;10704;42.678;23.288;2024-01-06T15:24:02;9.90;99.90